メインページ
METAR-TAF:

METAR-TAF

空港 :

ビリー・ビショップ・トロント・シティー空港

トロント・シティーセンター, オンタリオ州, カナダ

緯度: 43-38N, 経度: 079-24W, 海抜: 77m

現時点の気象観測

当レポートは1時間3分前の13:00(UTC)に作成
西の風 19kt、最大24ktの突風を伴う
気温 1°C
湿度 69%
気圧 1007 hPa
視程: 14.5km
高度4300ftの曇り

METAR: CYTZ 151300Z AUTO 27019G24KT 9SM OVC043 01/M04 A2974 RMK PRESRR SLP075

時間: 09:03 (14:03 UTC)

予報

当レポートは24分前の13:39(UTC)に作成
予報は15日の 14時(UTC)から 16日の 14時(UTC)まで有効
西の風 15kt、最大28ktの突風を伴う
視程: 10km
高度4000ftの千切れ雲あり
高度8000ftの千切れ雲あり
15日の 1700時(UTC)から
西の風 15kt、最大28ktの突風を伴う
視程: 10km
高度3000ftの千切れ雲あり
15日の 17時(UTC)から 15日の 22時(UTC)まで一時的に
視程: 8.0km
弱いにわか雪
15日の 2200時(UTC)から
西の風 12kt、最大22ktの突風を伴う
視程: 10km
高度3000ftの千切れ雲あり
15日の 22時(UTC)から 15日の 24時(UTC)まで一時的に
視程: 10km
弱いにわか雪
16日の 0200時(UTC)から
西の風 8kt
視程: 10km
高度3000ftの雲はほとんどない
高度18000ftの雲は散在している
16日の 1200時(UTC)から
西/南西の風 5kt
視程: 10km
高度9000ftの千切れ雲あり

TAF: CYTZ 151339Z 1514/1614 28015G28KT P6SM BKN040 BKN080 FM151700 27015G28KT P6SM BKN030 TEMPO 1517/1522 5SM -SHSN FM152200 26012G22KT P6SM BKN030 TEMPO 1522/1524 P6SM -SHSN FM160200 26008KT P6SM FEW030 SCT180 FM161200 24005KT P6SM BKN090 RMK FCST BASED ON AUTO OBS. NXT FCST BY 152000Z

4,000以上の空港の気象観測と天気予報(METAR報とTAF報)

利用可能な観測所は地図上に黄色い丸と赤い丸で示す。

丸の上にカーソルを重ねると観測所名を参照できる。

次にクリックすると気象観測と天気予報を参照できる。

マップの切り替え:黒色「×」印の緑ボタンをクリックして拡大、「-」印の緑ボタンをクリックして縮小、緑色の三角印をクリックして隣りの地図に切り替え


METAR-TAF: